createdAt,value
2019-03-27T00:01:00.123Z,62.70
2019-03-27T00:03:27.851Z,62.70
2019-03-27T00:05:55.376Z,62.80
2019-03-27T00:08:23.321Z,62.80
2019-03-27T00:10:51.131Z,62.80
2019-03-27T00:13:18.773Z,62.70
2019-03-27T00:15:47.432Z,62.60
2019-03-27T00:18:15.604Z,63.30
2019-03-27T00:20:43.039Z,62.50
2019-03-27T00:23:11.189Z,62.40
2019-03-27T00:25:39.535Z,62.40
2019-03-27T00:28:07.099Z,62.50
2019-03-27T00:30:34.979Z,62.60
2019-03-27T00:33:02.620Z,62.90
2019-03-27T00:35:30.138Z,63.00
2019-03-27T00:37:58.116Z,63.00
2019-03-27T00:40:25.655Z,63.10
2019-03-27T00:42:53.296Z,63.50
2019-03-27T00:45:26.692Z,64.30
2019-03-27T00:47:50.404Z,64.60
2019-03-27T00:50:18.228Z,64.60
2019-03-27T00:52:45.972Z,64.60
2019-03-27T00:55:13.908Z,64.80
2019-03-27T00:57:41.668Z,65.20
2019-03-27T01:00:16.856Z,64.90
2019-03-27T01:02:44.403Z,64.90
2019-03-27T01:05:12.284Z,64.90
2019-03-27T01:07:40.207Z,64.90
2019-03-27T01:10:07.995Z,65.00
2019-03-27T01:12:37.739Z,65.00
2019-03-27T01:15:06.803Z,65.00
2019-03-27T01:17:34.372Z,64.90
2019-03-27T01:20:02.041Z,64.80
2019-03-27T01:22:29.671Z,64.80
2019-03-27T01:24:57.290Z,64.80
2019-03-27T01:27:25.287Z,65.30
2019-03-27T01:29:53.075Z,64.70
2019-03-27T01:32:21.288Z,65.10
2019-03-27T01:34:49.932Z,65.50
2019-03-27T01:37:17.856Z,65.10
2019-03-27T01:39:45.404Z,65.20
2019-03-27T01:42:13.840Z,64.90
2019-03-27T01:44:41.509Z,64.90
2019-03-27T01:47:10.036Z,64.90
2019-03-27T01:49:38.394Z,65.10
2019-03-27T01:52:08.043Z,64.90
2019-03-27T01:54:37.198Z,64.80
2019-03-27T01:57:05.528Z,64.50
2019-03-27T01:59:33.052Z,64.50
2019-03-27T02:02:02.299Z,64.90
2019-03-27T02:04:29.924Z,64.80
2019-03-27T02:06:58.491Z,64.90
2019-03-27T02:09:26.202Z,64.70
2019-03-27T02:11:53.983Z,65.30
2019-03-27T02:14:22.580Z,64.60
2019-03-27T02:16:50.965Z,64.60
2019-03-27T02:19:18.580Z,64.60
2019-03-27T02:21:47.061Z,64.40
2019-03-27T02:24:14.588Z,64.70
2019-03-27T02:26:42.208Z,64.80
2019-03-27T02:29:11.334Z,64.70
2019-03-27T02:31:39.891Z,64.40
2019-03-27T02:34:08.637Z,65.10
2019-03-27T02:36:37.076Z,64.50
2019-03-27T02:39:05.488Z,64.20
2019-03-27T02:41:33.313Z,64.60
2019-03-27T02:44:01.078Z,64.30
2019-03-27T02:46:29.233Z,64.40
2019-03-27T02:48:57.968Z,63.80
2019-03-27T02:51:25.623Z,64.00
2019-03-27T02:53:53.319Z,64.50
2019-03-27T02:56:21.360Z,64.20
2019-03-27T02:58:49.158Z,64.20
2019-03-27T03:01:16.677Z,64.20
2019-03-27T03:03:44.625Z,64.30
2019-03-27T03:06:13.298Z,64.10
2019-03-27T03:08:41.044Z,63.80
2019-03-27T03:11:09.452Z,64.60
2019-03-27T03:13:36.912Z,63.70
2019-03-27T03:16:06.246Z,63.90
2019-03-27T03:18:33.898Z,63.70
2019-03-27T03:21:02.322Z,64.00
2019-03-27T03:23:30.983Z,64.00
2019-03-27T03:25:59.058Z,63.80
2019-03-27T03:28:27.510Z,63.60
2019-03-27T03:30:54.985Z,63.60
2019-03-27T03:33:23.180Z,63.40
2019-03-27T03:35:50.959Z,63.70
2019-03-27T03:38:18.835Z,64.20
2019-03-27T03:40:47.215Z,63.60
2019-03-27T03:43:14.739Z,64.00
2019-03-27T03:45:43.700Z,64.30
2019-03-27T03:48:11.367Z,64.50
2019-03-27T03:50:40.796Z,64.00
2019-03-27T03:53:10.520Z,63.60
2019-03-27T03:55:39.391Z,63.60
2019-03-27T03:58:08.860Z,63.20
2019-03-27T04:00:36.767Z,63.60
2019-03-27T04:03:04.656Z,64.10
2019-03-27T04:05:32.412Z,63.40
2019-03-27T04:08:00.047Z,63.40
2019-03-27T04:10:27.984Z,63.20
2019-03-27T04:12:55.679Z,63.30
2019-03-27T04:15:24.243Z,63.30
2019-03-27T04:17:53.465Z,63.00
2019-03-27T04:20:20.872Z,63.20
2019-03-27T04:22:48.539Z,63.30
2019-03-27T04:25:19.483Z,63.40
2019-03-27T04:27:48.004Z,63.20
2019-03-27T04:30:16.153Z,63.40
2019-03-27T04:32:44.384Z,63.90
2019-03-27T04:35:12.306Z,64.20
2019-03-27T04:37:39.868Z,64.60
2019-03-27T04:40:08.032Z,64.70
2019-03-27T04:42:36.197Z,64.30
2019-03-27T04:45:04.650Z,64.10
2019-03-27T04:47:32.800Z,64.00
2019-03-27T04:50:01.486Z,64.30
2019-03-27T04:52:29.136Z,64.10
2019-03-27T04:54:57.772Z,64.30
2019-03-27T04:57:26.440Z,64.30
2019-03-27T04:59:54.596Z,64.50
2019-03-27T05:02:22.732Z,64.90
2019-03-27T05:04:50.132Z,64.30
2019-03-27T05:07:19.720Z,64.40
2019-03-27T05:09:48.572Z,64.50
2019-03-27T05:12:16.963Z,64.50
2019-03-27T05:14:44.767Z,65.20
2019-03-27T05:17:12.500Z,64.50
2019-03-27T05:19:40.975Z,65.20
2019-03-27T05:22:09.240Z,64.90
2019-03-27T05:24:37.532Z,64.60
2019-03-27T05:27:05.395Z,64.20
2019-03-27T05:29:33.098Z,64.10
2019-03-27T05:32:00.720Z,64.20
2019-03-27T05:34:28.413Z,64.20
2019-03-27T05:36:56.059Z,64.20
2019-03-27T05:39:24.463Z,64.10
2019-03-27T05:41:52.028Z,64.30
2019-03-27T05:44:19.475Z,64.20
2019-03-27T05:46:47.414Z,64.30
2019-03-27T05:49:15.084Z,64.40
2019-03-27T05:51:43.307Z,64.40
2019-03-27T05:54:11.739Z,64.70
2019-03-27T05:56:41.315Z,65.00
2019-03-27T05:59:09.725Z,65.50
2019-03-27T06:01:37.840Z,65.40
2019-03-27T06:04:07.417Z,65.60
2019-03-27T06:06:36.495Z,65.80
2019-03-27T06:09:05.485Z,65.90
2019-03-27T06:11:32.984Z,66.10
2019-03-27T06:14:00.888Z,66.20
2019-03-27T06:16:29.329Z,66.10
2019-03-27T06:18:56.883Z,66.50
2019-03-27T06:21:24.491Z,67.40
2019-03-27T06:23:52.618Z,66.80
2019-03-27T06:26:20.317Z,67.00
2019-03-27T06:28:48.177Z,67.40
2019-03-27T06:31:16.498Z,67.90
2019-03-27T06:33:44.327Z,67.80
2019-03-27T06:36:13.142Z,68.10
2019-03-27T06:38:41.445Z,68.20
2019-03-27T06:41:09.539Z,68.50
2019-03-27T06:43:37.782Z,68.70
2019-03-27T06:46:05.884Z,68.60
2019-03-27T06:48:33.435Z,68.90
2019-03-27T06:51:01.239Z,69.50
2019-03-27T06:53:30.658Z,69.20
2019-03-27T06:55:58.724Z,69.60
2019-03-27T06:58:27.046Z,69.50
2019-03-27T07:00:54.492Z,69.50
2019-03-27T07:03:22.627Z,69.40
2019-03-27T07:05:50.289Z,69.50
2019-03-27T07:08:18.939Z,69.50
2019-03-27T07:10:46.685Z,68.80
2019-03-27T07:13:14.727Z,67.40
2019-03-27T07:15:43.419Z,67.20
2019-03-27T07:18:11.700Z,67.40
2019-03-27T07:20:41.048Z,67.80
2019-03-27T07:23:09.532Z,67.90
2019-03-27T07:25:37.100Z,67.60
2019-03-27T07:28:05.339Z,67.60
2019-03-27T07:30:32.916Z,67.30
2019-03-27T07:33:00.752Z,67.20
2019-03-27T07:35:30.339Z,66.60
2019-03-27T07:37:57.859Z,66.80
2019-03-27T07:40:25.484Z,67.00
2019-03-27T07:42:53.095Z,65.40
2019-03-27T07:45:20.648Z,65.20
2019-03-27T07:47:48.495Z,64.60
2019-03-27T07:50:18.132Z,64.60
2019-03-27T07:52:45.818Z,64.40
2019-03-27T07:55:19.193Z,64.50
2019-03-27T07:57:43.742Z,63.60
2019-03-27T08:00:13.805Z,63.90
2019-03-27T08:02:41.520Z,63.90
2019-03-27T08:05:09.347Z,63.60
2019-03-27T08:07:38.495Z,63.20
2019-03-27T08:10:07.055Z,63.20
2019-03-27T08:12:34.900Z,62.90
2019-03-27T08:15:05.098Z,62.80
2019-03-27T08:17:33.779Z,63.30
2019-03-27T08:20:01.484Z,63.00
2019-03-27T08:22:31.026Z,63.20
2019-03-27T08:24:58.971Z,63.20
2019-03-27T08:27:26.453Z,62.70
2019-03-27T08:29:56.022Z,61.80
2019-03-27T08:32:23.688Z,61.40
2019-03-27T08:34:52.484Z,61.30
2019-03-27T08:37:22.131Z,60.60
2019-03-27T08:39:50.795Z,60.20
2019-03-27T08:42:18.473Z,60.70
2019-03-27T08:44:48.023Z,60.90
2019-03-27T08:47:16.024Z,61.10
2019-03-27T08:49:44.695Z,60.60
2019-03-27T08:52:12.263Z,60.10
2019-03-27T08:54:40.307Z,59.40
2019-03-27T08:57:07.856Z,59.00
2019-03-27T08:59:35.377Z,59.20
2019-03-27T09:02:03.078Z,59.40
2019-03-27T09:04:30.623Z,59.80
2019-03-27T09:06:58.567Z,59.60
2019-03-27T09:09:25.967Z,59.90
2019-03-27T09:11:55.164Z,60.40
2019-03-27T09:14:24.139Z,60.40
2019-03-27T09:16:51.555Z,61.10
2019-03-27T09:19:19.524Z,60.60
2019-03-27T09:21:47.779Z,58.70
2019-03-27T09:24:15.289Z,58.10
2019-03-27T09:26:44.587Z,58.80
2019-03-27T09:29:12.859Z,59.90
2019-03-27T09:31:44.995Z,60.20
2019-03-27T09:34:10.102Z,60.40
2019-03-27T09:36:38.636Z,60.50
2019-03-27T09:39:09.099Z,60.70
2019-03-27T09:41:36.787Z,59.90
2019-03-27T09:44:04.439Z,60.40
2019-03-27T09:46:32.484Z,60.60
2019-03-27T09:49:01.596Z,60.30
2019-03-27T09:51:29.736Z,60.00
2019-03-27T09:53:57.402Z,59.80
2019-03-27T09:56:25.723Z,60.90
2019-03-27T09:58:53.348Z,61.70
2019-03-27T10:01:20.975Z,61.10
2019-03-27T10:03:48.736Z,62.20
2019-03-27T10:06:17.825Z,61.60
2019-03-27T10:08:45.415Z,62.10
2019-03-27T10:11:13.933Z,61.40
2019-03-27T10:13:41.600Z,62.00
2019-03-27T10:16:09.576Z,61.30
2019-03-27T10:18:37.603Z,61.50
2019-03-27T10:21:05.251Z,61.70
2019-03-27T10:23:33.604Z,61.10
2019-03-27T10:26:01.241Z,60.80
2019-03-27T10:28:29.411Z,60.50
2019-03-27T10:30:59.242Z,60.90
2019-03-27T10:33:27.901Z,60.70
2019-03-27T10:35:56.199Z,61.10
2019-03-27T10:38:25.379Z,60.50
2019-03-27T10:40:53.742Z,61.10
2019-03-27T10:43:21.364Z,61.00
2019-03-27T10:45:49.320Z,60.90
2019-03-27T10:48:16.911Z,60.60
2019-03-27T10:50:44.616Z,61.30
2019-03-27T10:53:14.156Z,61.60
2019-03-27T10:55:43.156Z,61.10
2019-03-27T10:58:11.415Z,62.10
2019-03-27T11:00:41.080Z,61.20
2019-03-27T11:03:08.799Z,60.50
2019-03-27T11:05:36.855Z,60.50
2019-03-27T11:08:04.520Z,60.30
2019-03-27T11:10:33.304Z,60.10
2019-03-27T11:13:00.823Z,60.80
2019-03-27T11:15:30.192Z,59.30
2019-03-27T11:17:57.858Z,59.80
2019-03-27T11:20:31.273Z,58.90
2019-03-27T11:22:57.188Z,58.50
2019-03-27T11:25:24.579Z,58.30
2019-03-27T11:27:53.336Z,59.20
2019-03-27T11:30:34.419Z,59.00
2019-03-27T11:33:02.315Z,58.10
2019-03-27T11:35:31.855Z,58.40
2019-03-27T11:37:59.853Z,57.90
2019-03-27T11:40:28.712Z,57.60
2019-03-27T11:42:56.351Z,58.00
2019-03-27T11:45:24.216Z,58.00
2019-03-27T11:47:52.272Z,58.10
2019-03-27T11:50:20.772Z,58.10
2019-03-27T11:52:48.724Z,57.60
2019-03-27T11:55:16.544Z,57.70
2019-03-27T11:57:45.031Z,57.60
2019-03-27T12:00:13.521Z,57.60
2019-03-27T12:02:43.020Z,57.90
2019-03-27T12:05:11.641Z,58.00
2019-03-27T12:07:39.285Z,58.00
2019-03-27T12:10:09.297Z,58.20
2019-03-27T12:12:36.960Z,58.00
2019-03-27T12:15:06.075Z,58.00
2019-03-27T12:17:34.786Z,58.20
2019-03-27T12:20:03.195Z,56.90
2019-03-27T12:22:32.164Z,55.20
2019-03-27T12:25:00.357Z,55.50
2019-03-27T12:27:28.860Z,55.40
2019-03-27T12:29:56.829Z,56.00
2019-03-27T12:32:25.158Z,56.00
2019-03-27T12:34:52.872Z,55.50
2019-03-27T12:37:21.994Z,55.80
2019-03-27T12:39:49.991Z,56.10
2019-03-27T12:42:17.743Z,55.90
2019-03-27T12:44:45.307Z,55.60
2019-03-27T12:47:14.104Z,55.40
2019-03-27T12:49:41.661Z,55.40
2019-03-27T12:52:10.036Z,55.60
2019-03-27T12:54:37.548Z,55.50
2019-03-27T12:57:05.651Z,55.60
2019-03-27T12:59:33.304Z,55.80
2019-03-27T13:02:00.917Z,56.10
2019-03-27T13:04:30.146Z,55.90
2019-03-27T13:06:57.828Z,55.30
2019-03-27T13:09:25.532Z,55.10
2019-03-27T13:11:53.701Z,55.80
2019-03-27T13:14:21.393Z,56.10
2019-03-27T13:16:52.353Z,56.20
2019-03-27T13:19:20.543Z,55.40
2019-03-27T13:21:48.456Z,56.10
2019-03-27T13:24:16.116Z,55.50
2019-03-27T13:26:45.379Z,55.90
2019-03-27T13:29:14.111Z,56.20
2019-03-27T13:31:42.396Z,55.40
2019-03-27T13:34:10.311Z,56.10
2019-03-27T13:36:44.847Z,56.70
2019-03-27T13:39:12.632Z,55.80
2019-03-27T13:41:40.503Z,55.30
2019-03-27T13:44:08.819Z,55.40
2019-03-27T13:46:37.284Z,55.80
2019-03-27T13:49:06.215Z,55.30
2019-03-27T13:51:40.494Z,55.20
2019-03-27T13:54:06.048Z,55.40
2019-03-27T13:56:34.744Z,55.40
2019-03-27T13:59:02.805Z,55.80
2019-03-27T14:01:31.867Z,55.40
2019-03-27T14:04:01.607Z,54.80
2019-03-27T14:06:29.536Z,55.20
2019-03-27T14:08:57.492Z,54.90
2019-03-27T14:11:26.068Z,55.00
2019-03-27T14:13:53.639Z,55.70
2019-03-27T14:16:22.268Z,55.70
2019-03-27T14:18:49.815Z,55.20
2019-03-27T14:21:17.462Z,55.50
2019-03-27T14:23:46.003Z,55.50
2019-03-27T14:26:13.891Z,55.60
2019-03-27T14:28:41.336Z,55.30
2019-03-27T14:31:10.763Z,54.40
2019-03-27T14:33:38.470Z,54.10
2019-03-27T14:36:08.187Z,54.40
2019-03-27T14:38:36.652Z,54.30
2019-03-27T14:41:04.277Z,54.40
2019-03-27T14:43:32.353Z,53.80
2019-03-27T14:45:59.959Z,53.60
2019-03-27T14:48:28.019Z,53.70
2019-03-27T14:50:55.543Z,54.40
2019-03-27T14:53:24.108Z,53.80
2019-03-27T14:55:53.592Z,54.20
2019-03-27T14:58:22.239Z,54.00
2019-03-27T15:00:51.363Z,54.50
2019-03-27T15:03:19.707Z,54.00
2019-03-27T15:05:48.272Z,54.70
2019-03-27T15:08:15.904Z,54.50
2019-03-27T15:10:43.620Z,54.50
2019-03-27T15:13:15.276Z,54.90
2019-03-27T15:15:42.986Z,54.50
2019-03-27T15:18:10.768Z,53.50
2019-03-27T15:20:38.588Z,53.90
2019-03-27T15:23:06.713Z,53.30
2019-03-27T15:25:36.139Z,53.10
2019-03-27T15:28:05.431Z,54.20
2019-03-27T15:30:33.696Z,53.80
2019-03-27T15:33:02.073Z,54.70
2019-03-27T15:35:29.721Z,54.60
2019-03-27T15:37:57.276Z,54.50
2019-03-27T15:40:38.511Z,54.80
2019-03-27T15:43:07.303Z,53.60
2019-03-27T15:45:35.362Z,53.30
2019-03-27T15:48:03.166Z,53.30
2019-03-27T15:50:30.850Z,53.20
2019-03-27T15:52:58.807Z,53.20
2019-03-27T15:55:26.567Z,53.00
2019-03-27T15:57:54.361Z,52.90
2019-03-27T16:00:23.632Z,52.50
2019-03-27T16:02:52.591Z,52.50
2019-03-27T16:05:20.600Z,52.40
2019-03-27T16:07:49.771Z,52.30
2019-03-27T16:10:18.493Z,52.70
2019-03-27T16:12:47.677Z,52.60
2019-03-27T16:15:15.601Z,52.40
2019-03-27T16:17:43.644Z,52.20
2019-03-27T16:20:12.404Z,51.80
2019-03-27T16:22:49.792Z,52.70
2019-03-27T16:25:10.055Z,53.40
2019-03-27T16:27:39.251Z,53.00
2019-03-27T16:30:07.714Z,53.60
2019-03-27T16:32:35.697Z,54.00
2019-03-27T16:35:04.096Z,53.90
2019-03-27T16:37:32.093Z,53.80
2019-03-27T16:39:59.955Z,53.50
2019-03-27T16:42:28.112Z,53.80
2019-03-27T16:44:56.441Z,53.80
2019-03-27T16:47:24.621Z,54.10
2019-03-27T16:49:52.787Z,54.10
2019-03-27T16:52:20.959Z,53.60
2019-03-27T16:54:50.375Z,53.70
2019-03-27T16:57:18.671Z,54.40
2019-03-27T16:59:46.359Z,53.90
2019-03-27T17:02:14.539Z,54.00
2019-03-27T17:04:43.903Z,54.90
2019-03-27T17:07:11.455Z,54.90
2019-03-27T17:09:39.512Z,54.20
2019-03-27T17:12:09.075Z,54.80
2019-03-27T17:14:37.743Z,53.70
2019-03-27T17:17:05.595Z,53.30
2019-03-27T17:19:35.184Z,54.30
2019-03-27T17:22:03.487Z,55.20
2019-03-27T17:24:32.035Z,55.50
2019-03-27T17:26:59.719Z,55.30
2019-03-27T17:29:27.243Z,55.90
2019-03-27T17:31:56.063Z,56.50
2019-03-27T17:34:24.516Z,57.20
2019-03-27T17:36:52.964Z,57.90
2019-03-27T17:39:21.415Z,58.50
2019-03-27T17:41:50.271Z,59.10
2019-03-27T17:44:18.584Z,59.60
2019-03-27T17:46:50.057Z,60.80
2019-03-27T17:49:16.420Z,60.30
2019-03-27T17:51:44.667Z,60.30
2019-03-27T17:54:20.495Z,60.20
2019-03-27T17:56:41.884Z,60.20
2019-03-27T17:59:09.569Z,60.80
2019-03-27T18:01:37.579Z,60.40
2019-03-27T18:04:05.639Z,60.10
2019-03-27T18:06:33.212Z,59.90
2019-03-27T18:09:01.404Z,59.10
2019-03-27T18:11:30.684Z,59.00
2019-03-27T18:13:59.475Z,59.30
2019-03-27T18:16:27.802Z,59.00
2019-03-27T18:18:55.329Z,58.70
2019-03-27T18:21:23.716Z,58.80
2019-03-27T18:23:51.244Z,58.50
2019-03-27T18:26:20.404Z,58.80
2019-03-27T18:28:49.568Z,58.90
2019-03-27T18:31:17.167Z,58.60
2019-03-27T18:33:45.468Z,58.60
2019-03-27T18:36:13.014Z,58.60
2019-03-27T18:38:41.288Z,58.70
2019-03-27T18:41:08.824Z,58.90
2019-03-27T18:43:36.943Z,59.60
2019-03-27T18:46:04.971Z,58.90
2019-03-27T18:48:33.928Z,58.70
2019-03-27T18:51:01.799Z,59.30
2019-03-27T18:53:29.511Z,59.40
2019-03-27T18:55:58.279Z,59.30
2019-03-27T18:58:25.844Z,59.30
2019-03-27T19:00:53.703Z,59.20
2019-03-27T19:03:21.390Z,59.30
2019-03-27T19:05:49.379Z,58.90
2019-03-27T19:08:17.640Z,58.80
2019-03-27T19:10:46.106Z,59.10
2019-03-27T19:13:14.223Z,59.90
2019-03-27T19:15:41.759Z,59.60
2019-03-27T19:18:11.246Z,59.80
2019-03-27T19:20:39.218Z,59.80
2019-03-27T19:23:07.049Z,59.80
2019-03-27T19:25:36.307Z,59.80
2019-03-27T19:28:04.163Z,59.60
2019-03-27T19:30:31.794Z,59.60
2019-03-27T19:33:01.269Z,59.90
2019-03-27T19:35:30.819Z,60.00
2019-03-27T19:37:58.643Z,60.10
2019-03-27T19:40:26.496Z,60.20
2019-03-27T19:42:54.743Z,60.10
2019-03-27T19:45:22.633Z,59.80
2019-03-27T19:47:51.408Z,60.20
2019-03-27T19:50:19.291Z,61.00
2019-03-27T19:52:47.115Z,61.10
2019-03-27T19:55:15.145Z,61.10
2019-03-27T19:57:42.811Z,61.20
2019-03-27T20:00:11.436Z,61.60
2019-03-27T20:02:41.091Z,61.50
2019-03-27T20:05:10.141Z,61.50
2019-03-27T20:07:38.427Z,61.90
2019-03-27T20:10:08.424Z,60.70
2019-03-27T20:12:36.319Z,60.30
2019-03-27T20:15:11.689Z,61.00
2019-03-27T20:17:34.888Z,60.50
2019-03-27T20:20:07.310Z,60.20
2019-03-27T20:22:35.449Z,61.20
2019-03-27T20:25:05.352Z,61.20
2019-03-27T20:27:32.965Z,61.10
2019-03-27T20:30:01.020Z,61.10
2019-03-27T20:32:28.583Z,60.90
2019-03-27T20:34:56.406Z,60.80
2019-03-27T20:37:27.092Z,59.80
2019-03-27T20:39:54.664Z,60.70
2019-03-27T20:42:22.181Z,60.60
2019-03-27T20:44:50.535Z,60.80
2019-03-27T20:47:18.503Z,60.80
2019-03-27T20:49:46.356Z,60.80
2019-03-27T20:52:14.243Z,61.00
2019-03-27T20:54:54.450Z,60.90
2019-03-27T20:57:14.330Z,60.80
2019-03-27T20:59:42.572Z,60.90
2019-03-27T21:02:10.511Z,60.00
2019-03-27T21:04:38.007Z,60.00
2019-03-27T21:07:06.180Z,60.00
2019-03-27T21:09:34.819Z,59.90
2019-03-27T21:12:03.095Z,60.50
2019-03-27T21:14:32.067Z,60.70
2019-03-27T21:16:59.949Z,60.80
2019-03-27T21:19:27.708Z,60.80
2019-03-27T21:21:56.713Z,60.80
2019-03-27T21:24:25.119Z,61.50
2019-03-27T21:26:53.807Z,61.10
2019-03-27T21:29:22.276Z,61.10
2019-03-27T21:31:50.151Z,60.90
2019-03-27T21:34:17.860Z,60.30
2019-03-27T21:36:45.956Z,60.20
2019-03-27T21:39:13.583Z,60.00
2019-03-27T21:41:42.435Z,61.00
2019-03-27T21:44:10.063Z,61.10
2019-03-27T21:46:38.164Z,61.00
2019-03-27T21:49:07.756Z,61.30
2019-03-27T21:51:35.995Z,61.50
2019-03-27T21:54:04.656Z,61.60
2019-03-27T21:56:32.591Z,61.50
2019-03-27T21:59:02.591Z,61.70
2019-03-27T22:01:31.095Z,61.60
2019-03-27T22:03:58.619Z,61.80
2019-03-27T22:06:26.903Z,62.70
2019-03-27T22:08:55.772Z,61.80
2019-03-27T22:11:23.301Z,62.00
2019-03-27T22:13:52.007Z,62.20
2019-03-27T22:16:19.531Z,62.10
2019-03-27T22:18:48.139Z,62.30
2019-03-27T22:21:16.629Z,62.00
2019-03-27T22:23:45.827Z,62.40
2019-03-27T22:26:13.388Z,62.60
2019-03-27T22:28:42.580Z,62.40
2019-03-27T22:31:10.231Z,62.50
2019-03-27T22:33:38.603Z,62.40
2019-03-27T22:36:06.449Z,62.50
2019-03-27T22:38:35.055Z,62.40
2019-03-27T22:41:03.819Z,62.20
2019-03-27T22:43:32.301Z,62.20
2019-03-27T22:46:02.121Z,62.30
2019-03-27T22:48:30.063Z,62.20
2019-03-27T22:50:58.334Z,62.00
2019-03-27T22:53:27.432Z,62.00
2019-03-27T22:55:56.043Z,62.60
2019-03-27T22:58:25.063Z,62.60
2019-03-27T23:00:54.042Z,62.50
2019-03-27T23:03:22.043Z,62.60
2019-03-27T23:05:51.918Z,62.80
2019-03-27T23:08:21.011Z,63.10
2019-03-27T23:10:50.924Z,63.00
2019-03-27T23:13:19.303Z,63.20
2019-03-27T23:15:46.992Z,63.20
2019-03-27T23:18:16.475Z,63.30
2019-03-27T23:20:44.535Z,63.40
2019-03-27T23:23:12.444Z,63.40
2019-03-27T23:25:40.879Z,63.40
2019-03-27T23:28:08.936Z,63.70
2019-03-27T23:30:36.699Z,63.50
2019-03-27T23:33:05.011Z,63.40
2019-03-27T23:35:33.359Z,63.40
2019-03-27T23:38:01.280Z,63.40
2019-03-27T23:40:29.535Z,63.50
2019-03-27T23:42:57.501Z,63.60
2019-03-27T23:45:25.245Z,63.50
2019-03-27T23:47:53.806Z,63.30
2019-03-27T23:50:21.986Z,63.80
2019-03-27T23:52:51.524Z,63.70
2019-03-27T23:55:19.474Z,63.80
2019-03-27T23:57:47.592Z,63.90
